createdAt,value
2022-12-14T00:01:48.680Z,99.90
2022-12-14T00:04:16.904Z,99.90
2022-12-14T00:06:43.814Z,99.90
2022-12-14T00:16:35.146Z,99.90
2022-12-14T00:23:59.508Z,99.90
2022-12-14T00:26:29.714Z,99.90
2022-12-14T00:28:58.580Z,99.90
2022-12-14T00:31:25.685Z,99.90
2022-12-14T00:33:52.975Z,99.90
2022-12-14T00:36:20.193Z,99.90
2022-12-14T00:38:47.237Z,99.90
2022-12-14T00:41:14.174Z,99.90
2022-12-14T00:43:41.126Z,99.90
2022-12-14T00:46:08.681Z,99.90
2022-12-14T00:48:36.029Z,99.90
2022-12-14T00:51:03.402Z,99.90
2022-12-14T00:53:30.398Z,99.90
2022-12-14T00:55:57.355Z,99.90
2022-12-14T00:58:25.674Z,99.90
2022-12-14T01:01:04.984Z,99.90
2022-12-14T01:03:33.225Z,99.90
2022-12-14T01:06:00.821Z,99.90
2022-12-14T01:08:35.559Z,99.90
2022-12-14T01:11:09.782Z,99.90
2022-12-14T01:13:37.618Z,99.90
2022-12-14T01:16:13.275Z,99.90
2022-12-14T01:18:42.469Z,99.90
2022-12-14T01:21:13.182Z,99.90
2022-12-14T01:23:40.509Z,99.90
2022-12-14T01:26:07.434Z,99.90
2022-12-14T01:28:35.002Z,99.90
2022-12-14T01:31:22.198Z,99.90
2022-12-14T01:33:49.382Z,99.90
2022-12-14T01:36:22.017Z,99.90
2022-12-14T01:38:53.892Z,99.90
2022-12-14T01:41:43.661Z,99.90
2022-12-14T01:44:11.486Z,99.90
2022-12-14T01:46:45.420Z,99.90
2022-12-14T01:49:21.396Z,99.90
2022-12-14T01:52:03.523Z,99.90
2022-12-14T01:54:32.948Z,99.90
2022-12-14T01:57:00.245Z,99.90
2022-12-14T01:59:41.381Z,99.90
2022-12-14T02:02:11.491Z,99.90
2022-12-14T02:04:43.515Z,99.90
2022-12-14T02:07:12.170Z,99.90
2022-12-14T02:09:41.866Z,99.90
2022-12-14T02:12:24.774Z,99.90
2022-12-14T02:17:20.570Z,99.90
2022-12-14T02:22:51.984Z,99.90
2022-12-14T02:28:14.386Z,99.90
2022-12-14T02:30:43.213Z,99.90
2022-12-14T02:33:36.134Z,99.90
2022-12-14T02:36:20.892Z,99.90
2022-12-14T02:41:29.669Z,99.90
2022-12-14T02:44:08.459Z,99.90
2022-12-14T02:46:38.128Z,99.90
2022-12-14T02:49:29.012Z,99.90
2022-12-14T02:51:58.460Z,99.90
2022-12-14T02:54:31.081Z,99.90
2022-12-14T02:57:17.703Z,99.90
2022-12-14T02:59:45.265Z,99.90
2022-12-14T03:02:14.298Z,99.90
2022-12-14T03:04:45.905Z,99.90
2022-12-14T03:07:34.195Z,99.90
2022-12-14T03:10:07.809Z,99.90
2022-12-14T03:12:40.348Z,99.90
2022-12-14T03:15:09.525Z,99.90
2022-12-14T03:17:38.539Z,99.90
2022-12-14T03:20:14.604Z,99.90
2022-12-14T03:23:03.055Z,99.90
2022-12-14T03:25:37.109Z,99.90
2022-12-14T03:28:16.544Z,99.90
2022-12-14T03:31:06.016Z,99.90
2022-12-14T03:33:36.224Z,99.90
2022-12-14T03:36:25.846Z,99.90
2022-12-14T03:38:57.524Z,99.90
2022-12-14T03:41:49.016Z,99.90
2022-12-14T03:44:31.241Z,99.90
2022-12-14T03:47:19.260Z,99.90
2022-12-14T03:49:49.202Z,99.90
2022-12-14T03:52:41.716Z,99.90
2022-12-14T03:55:39.404Z,99.90
2022-12-14T03:58:50.048Z,99.90
2022-12-14T04:01:29.823Z,99.90
2022-12-14T04:03:59.772Z,99.90
2022-12-14T04:06:52.530Z,99.90
2022-12-14T04:09:49.506Z,99.90
2022-12-14T04:12:42.605Z,99.90
2022-12-14T04:15:37.833Z,99.90
2022-12-14T04:18:29.149Z,99.90
2022-12-14T04:21:05.334Z,99.90
2022-12-14T04:24:00.435Z,99.90
2022-12-14T04:26:37.304Z,99.90
2022-12-14T04:29:26.376Z,99.90
2022-12-14T04:32:03.598Z,99.90
2022-12-14T04:34:33.832Z,99.90
2022-12-14T04:37:05.093Z,99.90
2022-12-14T04:39:41.136Z,99.90
2022-12-14T04:42:10.118Z,99.90
2022-12-14T04:44:46.154Z,99.90
2022-12-14T04:47:17.141Z,99.90
2022-12-14T04:49:44.154Z,99.90
2022-12-14T04:52:19.719Z,99.90
2022-12-14T04:54:56.566Z,99.90
2022-12-14T04:57:27.267Z,99.90
2022-12-14T04:59:55.029Z,99.90
2022-12-14T05:02:50.878Z,99.90
2022-12-14T05:05:34.358Z,99.90
2022-12-14T05:08:25.007Z,99.90
2022-12-14T05:11:50.050Z,99.90
2022-12-14T05:14:10.130Z,99.90
2022-12-14T05:16:37.613Z,99.90
2022-12-14T05:19:09.318Z,99.90
2022-12-14T05:21:49.327Z,99.90
2022-12-14T05:24:17.370Z,99.90
2022-12-14T05:26:44.620Z,99.90
2022-12-14T05:29:11.860Z,99.90
2022-12-14T05:31:39.609Z,99.90
2022-12-14T05:34:06.603Z,99.90
2022-12-14T05:36:33.439Z,99.90
2022-12-14T05:39:00.863Z,99.90
2022-12-14T05:41:27.814Z,99.90
2022-12-14T05:43:55.100Z,99.90
2022-12-14T05:46:22.338Z,99.90
2022-12-14T05:48:49.728Z,99.90
2022-12-14T05:51:16.940Z,99.90
2022-12-14T05:53:44.189Z,99.90
2022-12-14T05:56:11.524Z,99.90
2022-12-14T05:58:39.032Z,99.90
2022-12-14T06:01:11.517Z,99.90
2022-12-14T06:03:40.872Z,99.90
2022-12-14T06:06:09.899Z,99.90
2022-12-14T06:08:39.534Z,99.90
2022-12-14T06:11:12.160Z,99.90
2022-12-14T06:18:43.705Z,99.90
2022-12-14T06:23:38.377Z,99.90
2022-12-14T06:26:05.404Z,99.90
2022-12-14T06:28:32.728Z,99.90
2022-12-14T06:30:59.789Z,99.90
2022-12-14T06:33:27.291Z,99.90
2022-12-14T06:35:54.526Z,99.90
2022-12-14T06:38:21.743Z,99.90
2022-12-14T06:40:48.720Z,99.90
2022-12-14T06:43:15.520Z,99.90
2022-12-14T06:48:10.172Z,99.90
2022-12-14T06:50:37.320Z,99.90
2022-12-14T06:53:05.146Z,99.90
2022-12-14T06:55:32.947Z,99.90
2022-12-14T06:58:00.332Z,99.90
2022-12-14T07:00:27.289Z,99.90
2022-12-14T07:02:54.380Z,99.90
2022-12-14T07:05:21.567Z,99.90
2022-12-14T07:07:48.452Z,99.90
2022-12-14T07:10:16.778Z,99.90
2022-12-14T07:12:43.914Z,99.90
2022-12-14T07:15:11.231Z,99.90
2022-12-14T07:17:38.593Z,99.90
2022-12-14T07:20:07.594Z,99.90
2022-12-14T07:22:35.635Z,99.90
2022-12-14T07:25:03.814Z,99.90
2022-12-14T07:27:30.781Z,99.90
2022-12-14T07:29:57.561Z,99.90
2022-12-14T07:32:24.592Z,99.90
2022-12-14T07:34:51.443Z,99.90
2022-12-14T07:37:18.361Z,99.90
2022-12-14T07:39:45.317Z,99.90
2022-12-14T07:42:12.872Z,99.90
2022-12-14T07:47:16.688Z,99.90
2022-12-14T07:49:44.223Z,99.90
2022-12-14T07:52:11.226Z,99.90
2022-12-14T07:54:38.059Z,99.90
2022-12-14T07:57:04.953Z,99.90
2022-12-14T08:01:59.028Z,99.90
2022-12-14T08:04:26.170Z,99.90
2022-12-14T08:14:18.317Z,99.90
2022-12-14T08:16:46.623Z,99.90
2022-12-14T08:24:14.037Z,99.90
2022-12-14T08:29:09.761Z,99.90
2022-12-14T08:31:37.429Z,99.90
2022-12-14T08:34:05.118Z,99.90
2022-12-14T08:36:34.527Z,99.90
2022-12-14T08:39:05.078Z,99.60
2022-12-14T08:41:32.310Z,99.90
2022-12-14T08:44:01.182Z,99.40
2022-12-14T08:46:30.041Z,97.80
2022-12-14T08:48:57.381Z,98.80
2022-12-14T08:51:25.637Z,98.50
2022-12-14T08:53:53.361Z,96.30
2022-12-14T08:56:22.831Z,95.00
2022-12-14T08:58:49.776Z,93.70
2022-12-14T09:01:20.842Z,91.10
2022-12-14T09:03:48.365Z,91.60
2022-12-14T09:06:18.305Z,91.50
2022-12-14T09:08:47.088Z,91.30
2022-12-14T09:11:18.912Z,88.30
2022-12-14T09:13:46.762Z,91.90
2022-12-14T09:16:19.149Z,92.70
2022-12-14T09:18:47.203Z,90.30
2022-12-14T09:21:15.257Z,84.50
2022-12-14T09:23:42.462Z,85.50
2022-12-14T09:26:18.034Z,80.90
2022-12-14T09:28:48.577Z,81.80
2022-12-14T09:31:17.394Z,81.70
2022-12-14T09:33:44.302Z,82.10
2022-12-14T09:36:14.261Z,77.40
2022-12-14T09:38:48.717Z,76.20
2022-12-14T09:41:27.769Z,77.40
2022-12-14T09:44:18.144Z,72.80
2022-12-14T09:47:11.951Z,77.60
2022-12-14T09:49:53.650Z,73.70
2022-12-14T09:52:25.919Z,73.60
2022-12-14T09:54:55.467Z,74.50
2022-12-14T09:57:39.451Z,71.60
2022-12-14T10:00:20.651Z,71.50
2022-12-14T10:03:15.050Z,70.40
2022-12-14T10:06:00.814Z,68.30
2022-12-14T10:08:52.765Z,66.00
2022-12-14T10:11:49.072Z,65.60
2022-12-14T10:14:50.683Z,63.20
2022-12-14T10:17:51.267Z,63.40
2022-12-14T10:20:37.356Z,60.10
2022-12-14T10:23:04.858Z,59.30
2022-12-14T10:25:35.530Z,58.00
2022-12-14T10:28:11.984Z,58.10
2022-12-14T10:30:42.256Z,58.30
2022-12-14T10:33:44.228Z,58.30
2022-12-14T10:36:27.923Z,59.30
2022-12-14T10:39:02.139Z,58.40
2022-12-14T10:41:39.426Z,58.50
2022-12-14T10:44:18.758Z,57.20
2022-12-14T10:46:56.305Z,57.00
2022-12-14T10:49:39.923Z,56.60
2022-12-14T10:52:16.783Z,57.80
2022-12-14T10:54:54.239Z,58.20
2022-12-14T10:57:28.916Z,54.80
2022-12-14T11:00:08.533Z,53.00
2022-12-14T11:02:43.937Z,54.40
2022-12-14T11:05:35.759Z,54.40
2022-12-14T11:08:06.776Z,54.70
2022-12-14T11:10:41.349Z,54.70
2022-12-14T11:13:20.708Z,54.10
2022-12-14T11:15:50.008Z,54.70
2022-12-14T11:18:17.265Z,54.70
2022-12-14T11:20:54.817Z,54.80
2022-12-14T11:23:39.169Z,53.70
2022-12-14T11:26:13.419Z,53.80
2022-12-14T11:28:49.849Z,53.90
2022-12-14T11:31:20.222Z,53.60
2022-12-14T11:33:53.021Z,53.70
2022-12-14T11:36:30.423Z,52.30
2022-12-14T11:39:12.940Z,52.50
2022-12-14T11:41:47.791Z,53.20
2022-12-14T11:44:26.617Z,53.20
2022-12-14T11:46:57.910Z,53.70
2022-12-14T11:49:27.260Z,53.10
2022-12-14T11:52:12.022Z,53.50
2022-12-14T11:54:50.139Z,54.00
2022-12-14T11:57:28.023Z,52.60
2022-12-14T11:59:59.550Z,53.40
2022-12-14T12:02:53.206Z,52.80
2022-12-14T12:05:23.060Z,53.80
2022-12-14T12:07:50.333Z,51.90
2022-12-14T12:10:27.852Z,55.10
2022-12-14T12:13:02.651Z,52.00
2022-12-14T12:15:50.117Z,53.60
2022-12-14T12:18:20.711Z,53.40
2022-12-14T12:21:27.623Z,55.00
2022-12-14T12:24:20.755Z,54.50
2022-12-14T12:27:15.944Z,53.50
2022-12-14T12:30:31.261Z,53.00
2022-12-14T12:33:18.848Z,56.40
2022-12-14T12:35:59.010Z,53.60
2022-12-14T12:39:07.088Z,57.70
2022-12-14T12:42:04.969Z,54.90
2022-12-14T12:47:24.820Z,53.00
2022-12-14T12:49:54.072Z,56.70
2022-12-14T12:52:28.773Z,53.10
2022-12-14T12:55:11.627Z,56.70
2022-12-14T12:57:45.765Z,54.80
2022-12-14T13:00:33.439Z,54.30
2022-12-14T13:03:17.662Z,52.50
2022-12-14T13:05:51.520Z,55.90
2022-12-14T13:08:33.665Z,53.00
2022-12-14T13:18:33.765Z,55.90
2022-12-14T13:21:55.140Z,56.50
2022-12-14T13:39:40.436Z,52.70
2022-12-14T13:53:32.409Z,52.60
2022-12-14T13:57:31.809Z,52.60
2022-12-14T14:01:27.185Z,51.90
2022-12-14T14:24:14.063Z,57.20
2022-12-14T14:31:50.704Z,58.80
2022-12-14T14:34:42.957Z,57.60
2022-12-14T14:37:21.741Z,57.60
2022-12-14T14:40:23.442Z,58.10
2022-12-14T14:47:56.965Z,55.10
2022-12-14T14:51:44.553Z,61.10
2022-12-14T14:58:15.161Z,60.20
2022-12-14T15:00:50.050Z,56.30
2022-12-14T15:03:21.342Z,56.70
2022-12-14T15:06:04.473Z,56.80
2022-12-14T15:08:46.851Z,61.10
2022-12-14T15:11:28.458Z,57.40
2022-12-14T15:21:14.313Z,57.70
2022-12-14T15:23:57.446Z,57.70
2022-12-14T15:29:33.154Z,61.60
2022-12-14T15:34:59.989Z,65.40
2022-12-14T15:37:59.966Z,58.20
2022-12-14T15:40:37.997Z,58.40
2022-12-14T15:43:21.505Z,59.10
2022-12-14T15:46:28.581Z,58.70
2022-12-14T15:49:00.416Z,58.00
2022-12-14T15:51:42.281Z,63.30
2022-12-14T15:54:27.645Z,57.80
2022-12-14T15:56:58.810Z,61.60
2022-12-14T15:59:37.445Z,57.80
2022-12-14T16:02:31.006Z,57.80
2022-12-14T16:04:59.450Z,57.60
2022-12-14T16:07:36.653Z,58.40
2022-12-14T16:10:18.706Z,58.00
2022-12-14T16:12:49.667Z,57.70
2022-12-14T16:15:27.733Z,57.70
2022-12-14T16:18:10.914Z,57.60
2022-12-14T16:20:52.035Z,57.50
2022-12-14T16:23:28.704Z,61.80
2022-12-14T16:26:23.021Z,63.40
2022-12-14T16:29:06.122Z,66.50
2022-12-14T16:34:16.099Z,58.90
2022-12-14T16:39:47.534Z,59.50
2022-12-14T16:42:26.080Z,59.60
2022-12-14T16:44:56.549Z,68.10
2022-12-14T16:47:45.047Z,60.10
2022-12-14T16:53:22.158Z,66.70
2022-12-14T16:56:04.804Z,67.30
2022-12-14T16:58:32.631Z,69.80
2022-12-14T17:01:08.878Z,61.00
2022-12-14T17:03:37.387Z,66.90
2022-12-14T17:06:07.374Z,70.90
2022-12-14T17:08:34.905Z,70.40
2022-12-14T17:11:02.242Z,67.10
2022-12-14T17:16:00.537Z,68.80
2022-12-14T17:18:32.042Z,71.40
2022-12-14T17:20:59.814Z,72.30
2022-12-14T17:23:27.137Z,69.50
2022-12-14T17:28:25.389Z,71.10
2022-12-14T17:30:56.429Z,71.70
2022-12-14T17:33:25.979Z,63.90
2022-12-14T17:35:53.510Z,68.50
2022-12-14T17:38:21.383Z,67.80
2022-12-14T17:40:50.527Z,68.70
2022-12-14T17:43:24.724Z,69.30
2022-12-14T17:45:52.602Z,69.40
2022-12-14T17:48:20.452Z,68.90
2022-12-14T17:50:49.757Z,70.90
2022-12-14T17:53:20.711Z,71.20
2022-12-14T17:55:47.775Z,70.40
2022-12-14T17:58:14.848Z,72.00
2022-12-14T18:00:59.841Z,69.30
2022-12-14T18:03:29.922Z,70.50
2022-12-14T18:05:57.575Z,66.30
2022-12-14T18:08:25.236Z,75.50
2022-12-14T18:11:05.483Z,67.10
2022-12-14T18:21:00.955Z,68.60
2022-12-14T18:23:29.963Z,74.20
2022-12-14T18:25:59.284Z,78.60
2022-12-14T18:28:26.521Z,74.60
2022-12-14T18:30:57.198Z,80.90
2022-12-14T18:33:26.965Z,75.80
2022-12-14T18:35:58.079Z,77.80
2022-12-14T18:38:26.100Z,71.70
2022-12-14T18:40:55.166Z,78.80
2022-12-14T18:43:26.173Z,77.80
2022-12-14T18:45:56.755Z,81.80
2022-12-14T18:50:54.804Z,79.00
2022-12-14T18:53:24.115Z,73.80
2022-12-14T18:55:54.186Z,80.20
2022-12-14T18:58:23.828Z,74.70
2022-12-14T19:00:53.301Z,75.10
2022-12-14T19:03:21.117Z,83.30
2022-12-14T19:05:48.261Z,84.00
2022-12-14T19:08:15.361Z,83.60
2022-12-14T19:10:47.784Z,78.10
2022-12-14T19:13:25.489Z,78.80
2022-12-14T19:15:54.118Z,86.50
2022-12-14T19:18:21.269Z,90.40
2022-12-14T19:20:49.768Z,91.30
2022-12-14T19:23:21.455Z,90.50
2022-12-14T19:25:48.428Z,85.70
2022-12-14T19:28:33.387Z,85.20
2022-12-14T19:31:01.771Z,90.60
2022-12-14T19:33:30.615Z,89.10
2022-12-14T19:35:58.074Z,87.60
2022-12-14T19:38:24.916Z,92.30
2022-12-14T19:41:04.666Z,90.70
2022-12-14T19:43:32.060Z,91.80
2022-12-14T19:45:59.380Z,93.70
2022-12-14T19:48:26.481Z,94.40
2022-12-14T19:50:53.618Z,93.10
2022-12-14T19:53:23.913Z,94.10
2022-12-14T19:55:52.292Z,90.70
2022-12-14T19:58:21.795Z,94.50
2022-12-14T20:00:50.110Z,93.90
2022-12-14T20:03:17.823Z,96.10
2022-12-14T20:06:00.658Z,93.40
2022-12-14T20:08:29.537Z,96.70
2022-12-14T20:10:57.345Z,93.70
2022-12-14T20:13:27.767Z,94.00
2022-12-14T20:16:01.958Z,93.90
2022-12-14T20:18:32.257Z,93.90
2022-12-14T20:21:08.784Z,93.80
2022-12-14T20:23:37.220Z,98.20
2022-12-14T20:26:14.249Z,99.90
2022-12-14T20:28:41.218Z,99.00
2022-12-14T20:31:10.410Z,98.80
2022-12-14T20:33:38.911Z,98.80
2022-12-14T20:36:06.628Z,97.90
2022-12-14T20:38:33.937Z,97.30
2022-12-14T20:41:09.882Z,99.40
2022-12-14T20:43:38.788Z,97.70
2022-12-14T20:46:06.220Z,95.60
2022-12-14T20:48:33.287Z,96.20
2022-12-14T20:51:02.038Z,97.10
2022-12-14T20:53:30.606Z,97.40
2022-12-14T20:56:02.929Z,96.90
2022-12-14T20:58:29.735Z,97.20
2022-12-14T21:03:24.054Z,96.90
2022-12-14T21:08:18.328Z,96.20
2022-12-14T21:10:45.204Z,95.80
2022-12-14T21:13:12.082Z,98.00
2022-12-14T21:15:39.073Z,95.50
2022-12-14T21:20:33.707Z,98.20
2022-12-14T21:23:00.506Z,98.40
2022-12-14T21:25:27.596Z,96.90
2022-12-14T21:27:54.761Z,95.50
2022-12-14T21:30:21.800Z,98.60
2022-12-14T21:32:49.266Z,96.60
2022-12-14T21:35:18.308Z,98.80
2022-12-14T21:37:45.216Z,99.90
2022-12-14T21:40:32.570Z,99.90
2022-12-14T21:42:59.633Z,99.30
2022-12-14T21:47:54.024Z,99.50
2022-12-14T21:50:20.941Z,99.20
2022-12-14T21:52:47.805Z,98.80
2022-12-14T21:55:14.788Z,99.30
2022-12-14T21:58:00.764Z,99.90
2022-12-14T22:00:27.694Z,99.90
2022-12-14T22:02:56.008Z,99.40
2022-12-14T22:05:26.428Z,98.40
2022-12-14T22:08:19.457Z,95.30
2022-12-14T22:23:04.818Z,99.90
2022-12-14T22:27:59.073Z,99.90
2022-12-14T22:30:31.670Z,99.90
2022-12-14T22:32:59.270Z,99.90
2022-12-14T22:35:26.110Z,99.90
2022-12-14T22:37:53.335Z,99.90
2022-12-14T22:40:20.168Z,99.90
2022-12-14T22:45:14.762Z,99.90
2022-12-14T22:47:41.831Z,99.90
2022-12-14T22:50:09.136Z,99.90
2022-12-14T22:52:36.022Z,99.90
2022-12-14T22:55:03.183Z,99.90
2022-12-14T22:57:32.987Z,99.90
2022-12-14T23:00:07.575Z,99.90
2022-12-14T23:02:35.165Z,99.90
2022-12-14T23:05:02.250Z,99.90
2022-12-14T23:07:30.454Z,99.90
2022-12-14T23:10:16.696Z,99.90
2022-12-14T23:13:02.207Z,99.90
2022-12-14T23:18:33.642Z,99.90
2022-12-14T23:21:31.535Z,99.90
2022-12-14T23:24:17.686Z,99.90
2022-12-14T23:27:09.069Z,99.90
2022-12-14T23:29:55.554Z,99.90
2022-12-14T23:32:41.390Z,99.90
2022-12-14T23:35:27.086Z,99.90
2022-12-14T23:38:12.398Z,99.90
2022-12-14T23:40:57.700Z,99.90
2022-12-14T23:43:43.130Z,99.90
2022-12-14T23:46:28.452Z,99.90
2022-12-14T23:49:16.197Z,99.90
2022-12-14T23:54:48.374Z,99.90
2022-12-14T23:57:35.078Z,99.90
